createdAt,value
2022-12-04T07:38:50.521Z,100236.13
2022-12-04T07:41:52.371Z,100230.50
2022-12-04T07:44:54.209Z,100219.84
2022-12-04T07:47:55.990Z,100219.34
2022-12-04T07:51:15.704Z,100220.16
2022-12-04T07:54:17.567Z,100219.13
2022-12-04T07:57:19.599Z,100218.13
2022-12-04T08:00:21.770Z,100220.59
2022-12-04T08:03:23.698Z,100230.63
2022-12-04T08:06:27.783Z,100226.44
2022-12-04T08:09:29.650Z,100227.34
2022-12-04T08:12:33.225Z,100226.47
2022-12-04T08:15:35.465Z,100228.09
2022-12-04T08:18:38.060Z,100220.44
2022-12-04T08:21:39.960Z,100219.34
2022-12-04T08:24:42.820Z,100222.59
2022-12-04T08:27:47.717Z,100207.81
2022-12-04T08:30:49.770Z,100214.31
2022-12-04T08:33:54.222Z,100226.66
2022-12-04T08:36:56.089Z,100222.44
2022-12-04T08:39:58.918Z,100214.09
2022-12-04T08:43:00.923Z,100200.28
2022-12-04T08:46:05.288Z,100202.69
2022-12-04T08:49:07.499Z,100203.38
2022-12-04T08:52:09.428Z,100211.66
2022-12-04T08:55:11.313Z,100215.03
2022-12-04T08:58:13.439Z,100230.22
2022-12-04T09:01:16.105Z,100234.31
2022-12-04T09:04:18.913Z,100235.84
2022-12-04T09:07:21.001Z,100230.63
2022-12-04T09:10:23.072Z,100218.41
2022-12-04T09:13:25.026Z,100210.19
2022-12-04T09:16:27.395Z,100202.41
2022-12-04T09:19:31.223Z,100205.47
2022-12-04T09:23:02.103Z,100210.34
2022-12-04T09:25:59.496Z,100205.47
2022-12-04T09:29:03.190Z,100209.41
2022-12-04T09:32:05.473Z,100196.22
2022-12-04T09:35:08.243Z,100201.03
2022-12-04T18:53:07.269Z,100091.44
2022-12-04T18:57:03.872Z,100097.59
2022-12-04T19:01:00.448Z,100097.44
2022-12-04T19:04:56.972Z,100091.50
2022-12-04T19:08:53.508Z,100095.06
2022-12-04T19:12:51.220Z,100104.59
2022-12-04T19:16:53.993Z,100095.50
2022-12-04T19:20:50.553Z,100098.44
2022-12-04T19:24:47.191Z,100096.06
2022-12-04T19:28:43.743Z,100109.47
2022-12-04T19:32:40.286Z,100108.63
2022-12-04T19:36:41.273Z,100112.16
2022-12-04T19:40:37.869Z,100102.97
2022-12-04T19:44:48.483Z,100087.81
2022-12-04T19:48:49.780Z,100092.34
2022-12-04T19:52:46.315Z,100083.34
2022-12-04T19:56:45.837Z,100107.34
2022-12-04T20:00:42.402Z,100112.84
2022-12-04T20:04:39.044Z,100120.53
2022-12-04T20:08:35.633Z,100125.69
2022-12-04T20:12:32.192Z,100124.97
2022-12-04T20:16:28.774Z,100141.84
2022-12-04T20:20:25.548Z,100151.88
2022-12-04T20:24:22.103Z,100148.69
2022-12-04T20:28:18.636Z,100147.50
2022-12-04T20:32:15.165Z,100145.25
2022-12-04T20:36:12.251Z,100141.91
2022-12-04T20:40:23.868Z,100137.16
2022-12-04T20:44:20.809Z,100131.94
2022-12-04T20:48:17.367Z,100136.00
2022-12-04T20:52:17.036Z,100149.50
2022-12-04T20:56:13.645Z,100144.44
2022-12-04T21:00:10.202Z,100142.69
2022-12-04T21:04:06.750Z,100143.53
2022-12-04T21:08:03.311Z,100137.69
2022-12-04T21:12:25.535Z,100139.44
2022-12-04T21:16:22.849Z,100146.19
2022-12-04T21:20:19.399Z,100151.09
2022-12-04T21:24:15.960Z,100149.53
2022-12-04T21:28:12.636Z,100154.72
2022-12-04T21:32:09.184Z,100149.44
2022-12-04T21:36:05.755Z,100154.44
2022-12-04T21:40:02.460Z,100154.59
2022-12-04T21:43:59.331Z,100153.06
2022-12-04T21:47:55.903Z,100162.22
2022-12-04T21:51:59.762Z,100168.22
2022-12-04T21:55:57.249Z,100168.31
2022-12-04T21:59:54.007Z,100170.19
2022-12-04T22:03:53.372Z,100166.09
2022-12-04T22:07:50.086Z,100152.53
2022-12-04T22:11:46.705Z,100148.28
2022-12-04T22:15:44.755Z,100149.22
2022-12-04T22:19:41.350Z,100151.81
2022-12-04T22:23:38.020Z,100157.88
2022-12-04T22:27:34.548Z,100157.91
2022-12-04T22:31:34.015Z,100152.00
2022-12-04T22:35:30.829Z,100163.94
2022-12-04T22:39:27.398Z,100153.84
2022-12-04T22:43:24.099Z,100158.09
2022-12-04T22:47:20.615Z,100156.41
2022-12-04T22:51:19.711Z,100145.41
2022-12-04T22:55:16.241Z,100148.63
2022-12-04T22:59:12.818Z,100146.94
2022-12-04T23:03:09.538Z,100154.53
2022-12-04T23:07:06.145Z,100151.03
2022-12-04T23:11:02.665Z,100151.03
2022-12-04T23:14:59.168Z,100145.09
2022-12-04T23:18:56.136Z,100148.44
2022-12-04T23:22:54.805Z,100140.72
2022-12-04T23:26:51.371Z,100142.44
2022-12-04T23:30:48.134Z,100127.03
2022-12-04T23:34:44.744Z,100120.78
2022-12-04T23:38:41.295Z,100131.69
2022-12-04T23:42:37.826Z,100126.56
2022-12-04T23:46:34.462Z,100122.44
2022-12-04T23:50:31.137Z,100129.28
2022-12-04T23:54:28.481Z,100134.50
2022-12-04T23:58:25.032Z,100149.88
